sensor_id;sensor_type;location;lat;lon;timestamp;P1;durP1;ratioP1;P2;durP2;ratioP2
71814;SDS011;59659;41.520;23.794;2023-01-16T00:00:51;17.05;;;7.68;;
71814;SDS011;59659;41.520;23.794;2023-01-16T00:02:03;13.48;;;7.75;;
71814;SDS011;59659;41.520;23.794;2023-01-16T00:03:15;11.57;;;7.47;;
71814;SDS011;59659;41.520;23.794;2023-01-16T00:04:27;12.77;;;6.72;;
71814;SDS011;59659;41.520;23.794;2023-01-16T00:05:38;14.32;;;6.55;;
71814;SDS011;59659;41.520;23.794;2023-01-16T00:06:50;15.80;;;7.85;;
71814;SDS011;59659;41.520;23.794;2023-01-16T00:08:01;13.85;;;7.38;;
71814;SDS011;59659;41.520;23.794;2023-01-16T00:09:13;15.65;;;6.63;;
71814;SDS011;59659;41.520;23.794;2023-01-16T00:10:24;16.52;;;7.60;;
71814;SDS011;59659;41.520;23.794;2023-01-16T00:11:36;13.82;;;7.82;;
71814;SDS011;59659;41.520;23.794;2023-01-16T00:12:47;15.27;;;7.93;;
71814;SDS011;59659;41.520;23.794;2023-01-16T00:13:59;17.48;;;8.20;;
71814;SDS011;59659;41.520;23.794;2023-01-16T00:15:11;14.68;;;7.28;;
71814;SDS011;59659;41.520;23.794;2023-01-16T00:16:22;10.40;;;6.95;;
71814;SDS011;59659;41.520;23.794;2023-01-16T00:17:34;17.40;;;6.25;;
71814;SDS011;59659;41.520;23.794;2023-01-16T00:18:45;13.23;;;6.53;;
71814;SDS011;59659;41.520;23.794;2023-01-16T00:19:57;15.15;;;7.03;;
71814;SDS011;59659;41.520;23.794;2023-01-16T00:21:08;19.35;;;7.57;;
71814;SDS011;59659;41.520;23.794;2023-01-16T00:22:20;14.95;;;6.70;;
71814;SDS011;59659;41.520;23.794;2023-01-16T00:23:31;16.55;;;7.25;;
71814;SDS011;59659;41.520;23.794;2023-01-16T00:24:42;12.98;;;6.38;;
71814;SDS011;59659;41.520;23.794;2023-01-16T00:25:54;14.00;;;7.05;;
71814;SDS011;59659;41.520;23.794;2023-01-16T00:27:05;16.52;;;7.22;;
71814;SDS011;59659;41.520;23.794;2023-01-16T00:28:17;15.52;;;7.53;;
71814;SDS011;59659;41.520;23.794;2023-01-16T00:29:28;15.18;;;6.68;;
71814;SDS011;59659;41.520;23.794;2023-01-16T00:30:40;13.25;;;6.95;;
71814;SDS011;59659;41.520;23.794;2023-01-16T00:31:51;18.17;;;8.02;;
71814;SDS011;59659;41.520;23.794;2023-01-16T00:33:03;20.75;;;7.75;;
71814;SDS011;59659;41.520;23.794;2023-01-16T00:34:15;13.88;;;7.43;;
71814;SDS011;59659;41.520;23.794;2023-01-16T00:35:27;14.70;;;7.68;;
71814;SDS011;59659;41.520;23.794;2023-01-16T00:36:38;24.13;;;9.48;;
71814;SDS011;59659;41.520;23.794;2023-01-16T00:37:50;22.20;;;10.20;;
71814;SDS011;59659;41.520;23.794;2023-01-16T00:39:02;12.85;;;7.10;;
71814;SDS011;59659;41.520;23.794;2023-01-16T00:40:13;21.40;;;7.90;;
71814;SDS011;59659;41.520;23.794;2023-01-16T00:41:25;22.52;;;10.38;;
71814;SDS011;59659;41.520;23.794;2023-01-16T00:42:36;17.65;;;7.82;;
71814;SDS011;59659;41.520;23.794;2023-01-16T00:43:48;21.20;;;8.45;;
71814;SDS011;59659;41.520;23.794;2023-01-16T00:44:59;14.40;;;8.00;;
71814;SDS011;59659;41.520;23.794;2023-01-16T00:46:11;17.42;;;7.43;;
71814;SDS011;59659;41.520;23.794;2023-01-16T00:47:22;14.73;;;7.43;;
71814;SDS011;59659;41.520;23.794;2023-01-16T00:48:34;17.95;;;6.88;;
71814;SDS011;59659;41.520;23.794;2023-01-16T00:49:45;10.32;;;5.85;;
71814;SDS011;59659;41.520;23.794;2023-01-16T00:50:57;11.18;;;6.80;;
71814;SDS011;59659;41.520;23.794;2023-01-16T00:52:08;17.55;;;8.18;;
71814;SDS011;59659;41.520;23.794;2023-01-16T00:53:20;14.20;;;8.07;;
71814;SDS011;59659;41.520;23.794;2023-01-16T00:54:31;15.15;;;7.53;;
71814;SDS011;59659;41.520;23.794;2023-01-16T00:55:43;17.65;;;7.82;;
71814;SDS011;59659;41.520;23.794;2023-01-16T00:56:54;15.75;;;7.93;;
71814;SDS011;59659;41.520;23.794;2023-01-16T00:58:06;14.73;;;7.72;;
71814;SDS011;59659;41.520;23.794;2023-01-16T00:59:17;16.92;;;7.53;;
71814;SDS011;59659;41.520;23.794;2023-01-16T01:00:29;20.73;;;7.93;;
71814;SDS011;59659;41.520;23.794;2023-01-16T01:01:40;17.92;;;8.48;;
71814;SDS011;59659;41.520;23.794;2023-01-16T01:02:52;17.50;;;9.52;;
71814;SDS011;59659;41.520;23.794;2023-01-16T01:04:03;17.10;;;7.47;;
71814;SDS011;59659;41.520;23.794;2023-01-16T01:05:15;18.45;;;8.70;;
71814;SDS011;59659;41.520;23.794;2023-01-16T01:06:27;17.27;;;8.25;;
71814;SDS011;59659;41.520;23.794;2023-01-16T01:07:38;19.58;;;8.10;;
71814;SDS011;59659;41.520;23.794;2023-01-16T01:08:50;12.63;;;6.70;;
71814;SDS011;59659;41.520;23.794;2023-01-16T01:10:01;16.45;;;8.05;;
71814;SDS011;59659;41.520;23.794;2023-01-16T01:11:13;14.15;;;7.35;;
71814;SDS011;59659;41.520;23.794;2023-01-16T01:12:25;13.07;;;6.65;;
71814;SDS011;59659;41.520;23.794;2023-01-16T01:13:37;13.55;;;6.40;;
71814;SDS011;59659;41.520;23.794;2023-01-16T01:14:49;13.05;;;6.85;;
71814;SDS011;59659;41.520;23.794;2023-01-16T01:16:00;14.43;;;8.75;;
71814;SDS011;59659;41.520;23.794;2023-01-16T01:17:12;13.90;;;7.43;;
71814;SDS011;59659;41.520;23.794;2023-01-16T01:18:23;14.75;;;7.45;;
71814;SDS011;59659;41.520;23.794;2023-01-16T01:19:35;14.18;;;6.93;;
71814;SDS011;59659;41.520;23.794;2023-01-16T01:20:46;16.02;;;7.03;;
71814;SDS011;59659;41.520;23.794;2023-01-16T01:21:57;15.75;;;7.50;;
71814;SDS011;59659;41.520;23.794;2023-01-16T01:23:09;14.38;;;6.65;;
71814;SDS011;59659;41.520;23.794;2023-01-16T01:24:20;14.80;;;6.97;;
71814;SDS011;59659;41.520;23.794;2023-01-16T01:25:32;15.73;;;7.65;;
71814;SDS011;59659;41.520;23.794;2023-01-16T01:26:43;13.25;;;6.97;;
71814;SDS011;59659;41.520;23.794;2023-01-16T01:27:55;13.18;;;6.63;;
71814;SDS011;59659;41.520;23.794;2023-01-16T01:29:06;12.82;;;7.13;;
71814;SDS011;59659;41.520;23.794;2023-01-16T01:30:18;11.15;;;6.03;;
71814;SDS011;59659;41.520;23.794;2023-01-16T01:31:30;16.58;;;5.55;;
71814;SDS011;59659;41.520;23.794;2023-01-16T01:32:42;13.63;;;5.63;;
71814;SDS011;59659;41.520;23.794;2023-01-16T01:33:53;10.35;;;5.28;;
71814;SDS011;59659;41.520;23.794;2023-01-16T01:35:05;9.45;;;5.80;;
71814;SDS011;59659;41.520;23.794;2023-01-16T01:36:17;10.55;;;5.10;;
71814;SDS011;59659;41.520;23.794;2023-01-16T01:37:28;11.13;;;6.07;;
71814;SDS011;59659;41.520;23.794;2023-01-16T01:38:40;11.65;;;5.95;;
71814;SDS011;59659;41.520;23.794;2023-01-16T01:39:51;12.52;;;5.97;;
71814;SDS011;59659;41.520;23.794;2023-01-16T01:41:03;13.13;;;6.68;;
71814;SDS011;59659;41.520;23.794;2023-01-16T01:42:14;12.48;;;6.13;;
71814;SDS011;59659;41.520;23.794;2023-01-16T01:43:45;8.63;;;4.93;;
71814;SDS011;59659;41.520;23.794;2023-01-16T01:45:11;10.48;;;6.63;;
71814;SDS011;59659;41.520;23.794;2023-01-16T01:47:35;12.55;;;7.47;;
71814;SDS011;59659;41.520;23.794;2023-01-16T01:48:49;10.20;;;6.22;;
71814;SDS011;59659;41.520;23.794;2023-01-16T01:50:03;10.93;;;6.07;;
71814;SDS011;59659;41.520;23.794;2023-01-16T01:51:26;15.45;;;7.07;;
71814;SDS011;59659;41.520;23.794;2023-01-16T01:52:38;14.40;;;6.80;;
71814;SDS011;59659;41.520;23.794;2023-01-16T01:53:53;11.35;;;6.72;;
71814;SDS011;59659;41.520;23.794;2023-01-16T01:55:06;11.65;;;6.50;;
71814;SDS011;59659;41.520;23.794;2023-01-16T01:56:42;12.20;;;6.03;;
71814;SDS011;59659;41.520;23.794;2023-01-16T01:57:53;13.73;;;6.63;;
71814;SDS011;59659;41.520;23.794;2023-01-16T01:59:09;14.73;;;6.03;;
71814;SDS011;59659;41.520;23.794;2023-01-16T02:00:22;16.42;;;8.38;;
71814;SDS011;59659;41.520;23.794;2023-01-16T02:01:34;10.90;;;6.78;;
71814;SDS011;59659;41.520;23.794;2023-01-16T02:02:52;20.38;;;8.48;;
71814;SDS011;59659;41.520;23.794;2023-01-16T02:04:13;18.50;;;8.40;;
71814;SDS011;59659;41.520;23.794;2023-01-16T02:05:27;16.38;;;6.80;;
71814;SDS011;59659;41.520;23.794;2023-01-16T02:06:41;18.55;;;8.50;;
71814;SDS011;59659;41.520;23.794;2023-01-16T02:07:54;18.23;;;8.68;;
71814;SDS011;59659;41.520;23.794;2023-01-16T02:09:05;18.58;;;8.50;;
71814;SDS011;59659;41.520;23.794;2023-01-16T02:10:22;24.10;;;9.75;;
71814;SDS011;59659;41.520;23.794;2023-01-16T02:11:57;20.05;;;7.38;;
71814;SDS011;59659;41.520;23.794;2023-01-16T02:13:07;17.85;;;9.10;;
71814;SDS011;59659;41.520;23.794;2023-01-16T02:14:18;15.77;;;7.65;;
71814;SDS011;59659;41.520;23.794;2023-01-16T02:15:30;19.05;;;9.02;;
71814;SDS011;59659;41.520;23.794;2023-01-16T02:16:42;23.25;;;11.48;;
71814;SDS011;59659;41.520;23.794;2023-01-16T02:18:12;20.63;;;9.82;;
71814;SDS011;59659;41.520;23.794;2023-01-16T02:19:44;26.58;;;11.50;;
71814;SDS011;59659;41.520;23.794;2023-01-16T02:23:57;21.98;;;11.57;;
71814;SDS011;59659;41.520;23.794;2023-01-16T02:26:53;21.58;;;9.63;;
71814;SDS011;59659;41.520;23.794;2023-01-16T02:35:21;13.13;;;8.52;;
71814;SDS011;59659;41.520;23.794;2023-01-16T02:44:57;16.38;;;7.30;;
71814;SDS011;59659;41.520;23.794;2023-01-16T02:47:25;13.38;;;7.15;;
71814;SDS011;59659;41.520;23.794;2023-01-16T02:51:21;9.02;;;5.07;;
71814;SDS011;59659;41.520;23.794;2023-01-16T02:52:43;12.60;;;5.25;;
71814;SDS011;59659;41.520;23.794;2023-01-16T02:54:03;10.85;;;5.45;;
71814;SDS011;59659;41.520;23.794;2023-01-16T02:55:36;10.73;;;4.90;;
71814;SDS011;59659;41.520;23.794;2023-01-16T02:56:51;9.00;;;5.60;;
71814;SDS011;59659;41.520;23.794;2023-01-16T02:58:04;9.98;;;4.78;;
71814;SDS011;59659;41.520;23.794;2023-01-16T02:59:17;9.70;;;3.78;;
71814;SDS011;59659;41.520;23.794;2023-01-16T03:00:28;11.25;;;5.40;;
71814;SDS011;59659;41.520;23.794;2023-01-16T03:01:40;10.13;;;4.50;;
71814;SDS011;59659;41.520;23.794;2023-01-16T03:02:52;9.20;;;5.22;;
71814;SDS011;59659;41.520;23.794;2023-01-16T03:04:04;9.00;;;4.20;;
71814;SDS011;59659;41.520;23.794;2023-01-16T03:05:16;12.15;;;5.43;;
71814;SDS011;59659;41.520;23.794;2023-01-16T03:06:31;7.68;;;4.53;;
71814;SDS011;59659;41.520;23.794;2023-01-16T03:23:19;6.15;;;3.97;;
71814;SDS011;59659;41.520;23.794;2023-01-16T03:24:54;7.72;;;3.83;;
71814;SDS011;59659;41.520;23.794;2023-01-16T03:26:14;9.57;;;5.50;;
71814;SDS011;59659;41.520;23.794;2023-01-16T03:27:49;10.32;;;5.40;;
71814;SDS011;59659;41.520;23.794;2023-01-16T03:31:41;8.77;;;5.00;;
71814;SDS011;59659;41.520;23.794;2023-01-16T03:32:59;8.40;;;5.05;;
71814;SDS011;59659;41.520;23.794;2023-01-16T03:35:50;8.85;;;4.22;;
71814;SDS011;59659;41.520;23.794;2023-01-16T03:37:08;7.93;;;3.97;;
71814;SDS011;59659;41.520;23.794;2023-01-16T03:38:21;6.80;;;3.95;;
71814;SDS011;59659;41.520;23.794;2023-01-16T03:39:35;11.90;;;5.43;;
71814;SDS011;59659;41.520;23.794;2023-01-16T03:40:47;12.25;;;4.68;;
71814;SDS011;59659;41.520;23.794;2023-01-16T03:42:01;9.73;;;4.95;;
71814;SDS011;59659;41.520;23.794;2023-01-16T03:43:16;10.73;;;4.55;;
71814;SDS011;59659;41.520;23.794;2023-01-16T03:44:34;8.27;;;4.30;;
71814;SDS011;59659;41.520;23.794;2023-01-16T03:45:51;10.57;;;5.70;;
71814;SDS011;59659;41.520;23.794;2023-01-16T03:47:05;14.63;;;5.38;;
71814;SDS011;59659;41.520;23.794;2023-01-16T03:48:19;8.07;;;4.60;;
71814;SDS011;59659;41.520;23.794;2023-01-16T03:49:32;14.63;;;6.20;;
71814;SDS011;59659;41.520;23.794;2023-01-16T03:50:52;10.60;;;4.35;;
71814;SDS011;59659;41.520;23.794;2023-01-16T03:52:05;10.38;;;5.53;;
71814;SDS011;59659;41.520;23.794;2023-01-16T03:53:17;8.35;;;4.68;;
71814;SDS011;59659;41.520;23.794;2023-01-16T03:58:15;10.50;;;5.25;;
71814;SDS011;59659;41.520;23.794;2023-01-16T03:59:29;11.43;;;5.28;;
71814;SDS011;59659;41.520;23.794;2023-01-16T04:00:47;6.35;;;3.92;;
71814;SDS011;59659;41.520;23.794;2023-01-16T04:02:04;8.93;;;5.43;;
71814;SDS011;59659;41.520;23.794;2023-01-16T04:03:21;8.77;;;4.10;;
71814;SDS011;59659;41.520;23.794;2023-01-16T04:04:44;8.77;;;4.80;;
71814;SDS011;59659;41.520;23.794;2023-01-16T04:05:59;11.05;;;5.80;;
71814;SDS011;59659;41.520;23.794;2023-01-16T04:08:32;9.50;;;5.63;;
71814;SDS011;59659;41.520;23.794;2023-01-16T04:09:49;9.30;;;4.97;;
71814;SDS011;59659;41.520;23.794;2023-01-16T04:11:01;10.10;;;4.53;;
71814;SDS011;59659;41.520;23.794;2023-01-16T04:12:14;9.77;;;4.85;;
71814;SDS011;59659;41.520;23.794;2023-01-16T04:13:31;9.48;;;4.70;;
71814;SDS011;59659;41.520;23.794;2023-01-16T04:14:44;10.30;;;4.05;;
71814;SDS011;59659;41.520;23.794;2023-01-16T04:15:57;11.48;;;4.70;;
71814;SDS011;59659;41.520;23.794;2023-01-16T04:17:10;8.98;;;4.25;;
71814;SDS011;59659;41.520;23.794;2023-01-16T04:18:22;11.88;;;5.20;;
71814;SDS011;59659;41.520;23.794;2023-01-16T04:19:35;10.23;;;5.18;;
71814;SDS011;59659;41.520;23.794;2023-01-16T04:20:47;8.90;;;5.38;;
71814;SDS011;59659;41.520;23.794;2023-01-16T04:22:04;9.60;;;5.43;;
71814;SDS011;59659;41.520;23.794;2023-01-16T04:23:15;32.08;;;13.77;;
71814;SDS011;59659;41.520;23.794;2023-01-16T04:24:27;34.03;;;13.00;;
71814;SDS011;59659;41.520;23.794;2023-01-16T04:25:39;56.63;;;17.98;;
71814;SDS011;59659;41.520;23.794;2023-01-16T04:26:50;37.72;;;15.88;;
71814;SDS011;59659;41.520;23.794;2023-01-16T04:28:03;36.00;;;14.65;;
71814;SDS011;59659;41.520;23.794;2023-01-16T04:29:14;28.45;;;12.52;;
71814;SDS011;59659;41.520;23.794;2023-01-16T04:30:26;21.38;;;9.30;;
71814;SDS011;59659;41.520;23.794;2023-01-16T04:31:37;20.95;;;8.80;;
71814;SDS011;59659;41.520;23.794;2023-01-16T04:32:49;16.05;;;6.78;;
71814;SDS011;59659;41.520;23.794;2023-01-16T04:34:00;15.27;;;5.22;;
71814;SDS011;59659;41.520;23.794;2023-01-16T04:35:12;15.23;;;6.00;;
71814;SDS011;59659;41.520;23.794;2023-01-16T04:36:23;10.77;;;5.97;;
71814;SDS011;59659;41.520;23.794;2023-01-16T04:37:35;6.78;;;4.30;;
71814;SDS011;59659;41.520;23.794;2023-01-16T04:38:46;15.50;;;5.53;;
71814;SDS011;59659;41.520;23.794;2023-01-16T04:39:58;15.25;;;6.75;;
71814;SDS011;59659;41.520;23.794;2023-01-16T04:41:10;11.82;;;6.25;;
71814;SDS011;59659;41.520;23.794;2023-01-16T04:42:21;9.70;;;4.53;;
71814;SDS011;59659;41.520;23.794;2023-01-16T04:43:33;11.70;;;5.55;;
71814;SDS011;59659;41.520;23.794;2023-01-16T04:44:44;16.05;;;7.50;;
71814;SDS011;59659;41.520;23.794;2023-01-16T04:45:56;18.15;;;9.05;;
71814;SDS011;59659;41.520;23.794;2023-01-16T04:47:07;17.92;;;8.60;;
71814;SDS011;59659;41.520;23.794;2023-01-16T04:48:19;21.65;;;10.38;;
71814;SDS011;59659;41.520;23.794;2023-01-16T04:49:30;19.15;;;8.45;;
71814;SDS011;59659;41.520;23.794;2023-01-16T04:50:42;20.55;;;8.77;;
71814;SDS011;59659;41.520;23.794;2023-01-16T04:51:53;13.57;;;8.45;;
71814;SDS011;59659;41.520;23.794;2023-01-16T04:53:05;17.40;;;8.52;;
71814;SDS011;59659;41.520;23.794;2023-01-16T04:54:17;12.55;;;6.22;;
71814;SDS011;59659;41.520;23.794;2023-01-16T04:55:29;9.18;;;5.55;;
71814;SDS011;59659;41.520;23.794;2023-01-16T04:56:40;12.00;;;5.82;;
71814;SDS011;59659;41.520;23.794;2023-01-16T04:57:53;9.18;;;4.75;;
71814;SDS011;59659;41.520;23.794;2023-01-16T04:59:04;12.00;;;5.18;;
71814;SDS011;59659;41.520;23.794;2023-01-16T05:00:16;9.63;;;5.22;;
71814;SDS011;59659;41.520;23.794;2023-01-16T05:01:27;13.02;;;5.55;;
71814;SDS011;59659;41.520;23.794;2023-01-16T05:02:45;14.75;;;5.57;;
71814;SDS011;59659;41.520;23.794;2023-01-16T05:03:57;10.57;;;5.57;;
71814;SDS011;59659;41.520;23.794;2023-01-16T05:05:08;14.23;;;7.15;;
71814;SDS011;59659;41.520;23.794;2023-01-16T05:06:20;12.65;;;6.88;;
71814;SDS011;59659;41.520;23.794;2023-01-16T05:07:32;11.48;;;6.43;;
71814;SDS011;59659;41.520;23.794;2023-01-16T05:08:43;17.92;;;8.75;;
71814;SDS011;59659;41.520;23.794;2023-01-16T05:09:54;26.88;;;13.38;;
71814;SDS011;59659;41.520;23.794;2023-01-16T05:11:06;25.65;;;12.93;;
71814;SDS011;59659;41.520;23.794;2023-01-16T05:12:17;33.63;;;16.30;;
71814;SDS011;59659;41.520;23.794;2023-01-16T05:13:29;27.08;;;14.13;;
71814;SDS011;59659;41.520;23.794;2023-01-16T05:14:40;49.25;;;21.50;;
71814;SDS011;59659;41.520;23.794;2023-01-16T05:15:52;35.95;;;17.65;;
71814;SDS011;59659;41.520;23.794;2023-01-16T05:17:03;26.27;;;13.75;;
71814;SDS011;59659;41.520;23.794;2023-01-16T05:18:15;17.63;;;10.02;;
71814;SDS011;59659;41.520;23.794;2023-01-16T05:19:26;18.63;;;10.38;;
71814;SDS011;59659;41.520;23.794;2023-01-16T05:20:38;31.02;;;13.82;;
71814;SDS011;59659;41.520;23.794;2023-01-16T05:21:50;26.13;;;13.20;;
71814;SDS011;59659;41.520;23.794;2023-01-16T05:23:01;24.38;;;10.82;;
71814;SDS011;59659;41.520;23.794;2023-01-16T05:24:12;15.20;;;8.73;;
71814;SDS011;59659;41.520;23.794;2023-01-16T05:25:24;18.88;;;8.80;;
71814;SDS011;59659;41.520;23.794;2023-01-16T05:26:35;12.23;;;5.03;;
71814;SDS011;59659;41.520;23.794;2023-01-16T05:27:50;10.13;;;4.70;;
71814;SDS011;59659;41.520;23.794;2023-01-16T05:29:02;13.05;;;5.80;;
71814;SDS011;59659;41.520;23.794;2023-01-16T05:30:13;9.23;;;6.10;;
71814;SDS011;59659;41.520;23.794;2023-01-16T05:31:25;15.70;;;6.93;;
71814;SDS011;59659;41.520;23.794;2023-01-16T05:32:37;14.20;;;8.07;;
71814;SDS011;59659;41.520;23.794;2023-01-16T05:33:48;20.33;;;9.15;;
71814;SDS011;59659;41.520;23.794;2023-01-16T05:35:00;28.27;;;10.95;;
71814;SDS011;59659;41.520;23.794;2023-01-16T05:36:13;34.60;;;9.60;;
71814;SDS011;59659;41.520;23.794;2023-01-16T05:37:24;19.40;;;8.65;;
71814;SDS011;59659;41.520;23.794;2023-01-16T05:38:36;19.10;;;8.65;;
71814;SDS011;59659;41.520;23.794;2023-01-16T05:39:47;17.98;;;9.38;;
71814;SDS011;59659;41.520;23.794;2023-01-16T05:40:59;26.60;;;11.25;;
71814;SDS011;59659;41.520;23.794;2023-01-16T05:42:10;28.10;;;13.85;;
71814;SDS011;59659;41.520;23.794;2023-01-16T05:43:32;20.40;;;10.30;;
71814;SDS011;59659;41.520;23.794;2023-01-16T05:44:44;17.48;;;9.05;;
71814;SDS011;59659;41.520;23.794;2023-01-16T05:45:55;13.38;;;7.85;;
71814;SDS011;59659;41.520;23.794;2023-01-16T05:47:07;15.90;;;8.95;;
71814;SDS011;59659;41.520;23.794;2023-01-16T05:48:18;24.98;;;10.98;;
71814;SDS011;59659;41.520;23.794;2023-01-16T05:49:29;41.08;;;20.27;;
71814;SDS011;59659;41.520;23.794;2023-01-16T05:50:41;42.17;;;18.50;;
71814;SDS011;59659;41.520;23.794;2023-01-16T05:51:52;47.05;;;19.40;;
71814;SDS011;59659;41.520;23.794;2023-01-16T05:53:04;27.65;;;14.63;;
71814;SDS011;59659;41.520;23.794;2023-01-16T05:54:15;30.30;;;13.13;;
71814;SDS011;59659;41.520;23.794;2023-01-16T05:55:27;25.52;;;12.82;;
71814;SDS011;59659;41.520;23.794;2023-01-16T05:56:38;29.00;;;12.45;;
71814;SDS011;59659;41.520;23.794;2023-01-16T05:57:50;28.42;;;14.63;;
71814;SDS011;59659;41.520;23.794;2023-01-16T05:59:02;41.67;;;17.77;;
71814;SDS011;59659;41.520;23.794;2023-01-16T06:00:13;72.72;;;30.75;;
71814;SDS011;59659;41.520;23.794;2023-01-16T06:01:25;62.03;;;28.70;;
71814;SDS011;59659;41.520;23.794;2023-01-16T06:02:36;59.08;;;29.27;;
71814;SDS011;59659;41.520;23.794;2023-01-16T06:03:48;51.55;;;24.23;;
71814;SDS011;59659;41.520;23.794;2023-01-16T06:05:00;52.85;;;27.40;;
71814;SDS011;59659;41.520;23.794;2023-01-16T06:06:11;61.05;;;29.23;;
71814;SDS011;59659;41.520;23.794;2023-01-16T06:07:23;41.03;;;23.13;;
71814;SDS011;59659;41.520;23.794;2023-01-16T06:08:34;44.25;;;21.27;;
71814;SDS011;59659;41.520;23.794;2023-01-16T06:09:46;34.67;;;18.75;;
71814;SDS011;59659;41.520;23.794;2023-01-16T06:10:57;35.42;;;16.45;;
71814;SDS011;59659;41.520;23.794;2023-01-16T06:12:12;25.88;;;12.73;;
71814;SDS011;59659;41.520;23.794;2023-01-16T06:13:25;19.33;;;10.23;;
71814;SDS011;59659;41.520;23.794;2023-01-16T06:14:36;19.40;;;10.70;;
71814;SDS011;59659;41.520;23.794;2023-01-16T06:15:47;23.83;;;11.82;;
71814;SDS011;59659;41.520;23.794;2023-01-16T06:16:59;26.48;;;11.57;;
71814;SDS011;59659;41.520;23.794;2023-01-16T06:18:11;19.50;;;10.25;;
71814;SDS011;59659;41.520;23.794;2023-01-16T06:19:22;26.50;;;13.63;;
71814;SDS011;59659;41.520;23.794;2023-01-16T06:20:34;24.35;;;11.77;;
71814;SDS011;59659;41.520;23.794;2023-01-16T06:21:45;20.33;;;11.43;;
71814;SDS011;59659;41.520;23.794;2023-01-16T06:22:57;28.80;;;13.70;;
71814;SDS011;59659;41.520;23.794;2023-01-16T06:24:08;28.13;;;13.38;;
71814;SDS011;59659;41.520;23.794;2023-01-16T06:25:20;27.00;;;11.10;;
71814;SDS011;59659;41.520;23.794;2023-01-16T06:26:31;25.13;;;13.43;;
71814;SDS011;59659;41.520;23.794;2023-01-16T06:27:46;22.48;;;11.48;;
71814;SDS011;59659;41.520;23.794;2023-01-16T06:28:58;22.67;;;11.90;;
71814;SDS011;59659;41.520;23.794;2023-01-16T06:30:10;20.10;;;9.27;;
71814;SDS011;59659;41.520;23.794;2023-01-16T06:31:21;23.40;;;11.55;;
71814;SDS011;59659;41.520;23.794;2023-01-16T06:32:33;30.20;;;15.40;;
71814;SDS011;59659;41.520;23.794;2023-01-16T06:33:44;30.30;;;13.90;;
71814;SDS011;59659;41.520;23.794;2023-01-16T06:34:56;21.70;;;12.90;;
71814;SDS011;59659;41.520;23.794;2023-01-16T06:36:07;23.60;;;12.68;;
71814;SDS011;59659;41.520;23.794;2023-01-16T06:37:19;25.88;;;13.60;;
71814;SDS011;59659;41.520;23.794;2023-01-16T06:38:30;29.25;;;15.48;;
71814;SDS011;59659;41.520;23.794;2023-01-16T06:39:42;26.02;;;13.55;;
71814;SDS011;59659;41.520;23.794;2023-01-16T06:40:53;25.40;;;14.00;;
71814;SDS011;59659;41.520;23.794;2023-01-16T06:42:07;30.83;;;13.77;;
71814;SDS011;59659;41.520;23.794;2023-01-16T06:43:18;24.25;;;13.38;;
71814;SDS011;59659;41.520;23.794;2023-01-16T06:44:30;31.63;;;13.05;;
71814;SDS011;59659;41.520;23.794;2023-01-16T06:45:42;32.90;;;14.50;;
71814;SDS011;59659;41.520;23.794;2023-01-16T06:46:56;24.33;;;12.15;;
71814;SDS011;59659;41.520;23.794;2023-01-16T06:48:08;26.45;;;13.10;;
71814;SDS011;59659;41.520;23.794;2023-01-16T06:49:19;21.95;;;13.38;;
71814;SDS011;59659;41.520;23.794;2023-01-16T06:50:31;23.75;;;12.90;;
71814;SDS011;59659;41.520;23.794;2023-01-16T06:51:42;30.45;;;13.85;;
71814;SDS011;59659;41.520;23.794;2023-01-16T06:52:55;30.48;;;15.02;;
71814;SDS011;59659;41.520;23.794;2023-01-16T06:54:06;30.27;;;15.90;;
71814;SDS011;59659;41.520;23.794;2023-01-16T06:55:18;39.17;;;15.73;;
71814;SDS011;59659;41.520;23.794;2023-01-16T06:56:30;78.70;;;32.10;;
71814;SDS011;59659;41.520;23.794;2023-01-16T06:57:41;79.85;;;35.35;;
71814;SDS011;59659;41.520;23.794;2023-01-16T06:58:53;75.25;;;34.92;;
71814;SDS011;59659;41.520;23.794;2023-01-16T07:00:04;66.15;;;33.72;;
71814;SDS011;59659;41.520;23.794;2023-01-16T07:01:16;81.38;;;35.35;;
71814;SDS011;59659;41.520;23.794;2023-01-16T07:02:28;62.70;;;27.73;;
71814;SDS011;59659;41.520;23.794;2023-01-16T07:03:39;55.03;;;28.15;;
71814;SDS011;59659;41.520;23.794;2023-01-16T07:04:51;55.65;;;28.45;;
71814;SDS011;59659;41.520;23.794;2023-01-16T07:06:03;63.47;;;27.27;;
71814;SDS011;59659;41.520;23.794;2023-01-16T07:07:14;49.92;;;24.38;;
71814;SDS011;59659;41.520;23.794;2023-01-16T07:08:26;67.82;;;30.55;;
71814;SDS011;59659;41.520;23.794;2023-01-16T07:09:37;42.85;;;24.15;;
71814;SDS011;59659;41.520;23.794;2023-01-16T07:10:49;44.55;;;23.13;;
71814;SDS011;59659;41.520;23.794;2023-01-16T07:12:00;38.25;;;19.67;;
71814;SDS011;59659;41.520;23.794;2023-01-16T07:13:12;55.60;;;21.77;;
71814;SDS011;59659;41.520;23.794;2023-01-16T07:14:23;54.70;;;24.23;;
71814;SDS011;59659;41.520;23.794;2023-01-16T07:15:53;58.30;;;26.40;;
71814;SDS011;59659;41.520;23.794;2023-01-16T07:17:24;55.08;;;25.80;;
71814;SDS011;59659;41.520;23.794;2023-01-16T07:18:54;62.90;;;27.08;;
71814;SDS011;59659;41.520;23.794;2023-01-16T07:20:24;55.70;;;26.85;;
71814;SDS011;59659;41.520;23.794;2023-01-16T07:21:54;50.55;;;25.48;;
71814;SDS011;59659;41.520;23.794;2023-01-16T07:23:27;42.42;;;19.95;;
71814;SDS011;59659;41.520;23.794;2023-01-16T07:24:39;40.20;;;15.93;;
71814;SDS011;59659;41.520;23.794;2023-01-16T07:25:51;34.25;;;14.43;;
71814;SDS011;59659;41.520;23.794;2023-01-16T07:27:04;28.98;;;13.52;;
71814;SDS011;59659;41.520;23.794;2023-01-16T07:28:16;38.28;;;13.60;;
71814;SDS011;59659;41.520;23.794;2023-01-16T07:29:29;29.30;;;13.85;;
71814;SDS011;59659;41.520;23.794;2023-01-16T07:30:41;27.67;;;12.73;;
71814;SDS011;59659;41.520;23.794;2023-01-16T07:31:53;35.47;;;14.02;;
71814;SDS011;59659;41.520;23.794;2023-01-16T07:33:05;37.35;;;14.73;;
71814;SDS011;59659;41.520;23.794;2023-01-16T07:34:17;37.28;;;14.85;;
71814;SDS011;59659;41.520;23.794;2023-01-16T07:35:28;31.25;;;12.27;;
71814;SDS011;59659;41.520;23.794;2023-01-16T07:36:40;42.22;;;12.73;;
71814;SDS011;59659;41.520;23.794;2023-01-16T07:37:51;32.03;;;13.70;;
71814;SDS011;59659;41.520;23.794;2023-01-16T07:39:07;47.50;;;15.48;;
71814;SDS011;59659;41.520;23.794;2023-01-16T07:40:19;58.17;;;25.80;;
71814;SDS011;59659;41.520;23.794;2023-01-16T07:41:30;53.60;;;21.00;;
71814;SDS011;59659;41.520;23.794;2023-01-16T07:42:41;47.15;;;20.92;;
71814;SDS011;59659;41.520;23.794;2023-01-16T07:43:53;40.08;;;15.98;;
71814;SDS011;59659;41.520;23.794;2023-01-16T07:45:05;48.38;;;23.20;;
71814;SDS011;59659;41.520;23.794;2023-01-16T07:46:16;57.85;;;21.15;;
71814;SDS011;59659;41.520;23.794;2023-01-16T07:47:28;66.30;;;19.48;;
71814;SDS011;59659;41.520;23.794;2023-01-16T07:48:39;61.45;;;23.25;;
71814;SDS011;59659;41.520;23.794;2023-01-16T07:49:51;43.72;;;18.42;;
71814;SDS011;59659;41.520;23.794;2023-01-16T07:51:02;36.10;;;15.63;;
71814;SDS011;59659;41.520;23.794;2023-01-16T07:52:14;61.42;;;17.63;;
71814;SDS011;59659;41.520;23.794;2023-01-16T07:53:27;37.55;;;16.20;;
71814;SDS011;59659;41.520;23.794;2023-01-16T07:54:39;45.45;;;19.95;;
71814;SDS011;59659;41.520;23.794;2023-01-16T07:55:59;58.60;;;16.02;;
71814;SDS011;59659;41.520;23.794;2023-01-16T07:57:10;49.40;;;17.25;;